Time;durP1;ratioP1;P1;durP2;ratioP2;P2;SDS_P1;SDS_P2;PMS_P1;PMS_P2;Temp;Humidity;BMP_temperature;BMP_pressure;BME280_temperature;BME280_humidity;BME280_pressure;Samples;Min_cycle;Max_cycle;Signal;HPM_P1;HPM_P2
2022/03/07 00:00:59;;;;;;;10.77;5.78;;;;;;;;;;5061396;28;20112;-67
2022/03/07 00:03:25;;;;;;;10.88;6.07;;;;;;;;;;5061432;28;20546;-68
2022/03/07 00:05:50;;;;;;;12.88;6.50;;;;;;;;;;5062299;28;20459;-69
2022/03/07 00:08:16;;;;;;;13.85;5.97;;;;;;;;;;5041826;28;20475;-71
2022/03/07 00:10:41;;;;;;;10.68;5.72;;;;;;;;;;5060147;28;20020;-68
2022/03/07 00:13:07;;;;;;;8.98;5.90;;;;;;;;;;5040187;28;20024;-68
2022/03/07 00:15:33;;;;;;;12.38;6.22;;;;;;;;;;5044306;28;20024;-69
2022/03/07 00:17:58;;;;;;;10.60;6.53;;;;;;;;;;5044456;28;20032;-68
2022/03/07 00:20:23;;;;;;;12.13;6.30;;;;;;;;;;5060532;28;20021;-70
2022/03/07 00:22:48;;;;;;;11.57;5.90;;;;;;;;;;5043100;28;20397;-68
2022/03/07 00:25:15;;;;;;;12.18;5.43;;;;;;;;;;5059497;28;20024;-68
2022/03/07 00:27:41;;;;;;;13.57;6.15;;;;;;;;;;5064079;28;20055;-68
2022/03/07 00:30:07;;;;;;;11.00;5.80;;;;;;;;;;5049071;28;20475;-68
2022/03/07 00:32:32;;;;;;;15.35;5.88;;;;;;;;;;5044853;28;20055;-68
2022/03/07 00:34:58;;;;;;;14.60;5.50;;;;;;;;;;5067224;28;20412;-69
2022/03/07 00:37:23;;;;;;;15.25;6.30;;;;;;;;;;5065301;28;20167;-69
2022/03/07 00:39:48;;;;;;;15.93;5.97;;;;;;;;;;5062899;28;20115;-69
2022/03/07 00:42:14;;;;;;;14.38;6.57;;;;;;;;;;5061073;28;20044;-67
2022/03/07 00:44:39;;;;;;;9.30;5.53;;;;;;;;;;5068866;28;20190;-68
2022/03/07 00:47:04;;;;;;;11.13;5.65;;;;;;;;;;5066145;28;20520;-68
2022/03/07 00:49:29;;;;;;;11.20;5.40;;;;;;;;;;5064151;28;20856;-67
2022/03/07 00:51:56;;;;;;;12.77;5.45;;;;;;;;;;5066662;28;20027;-67
2022/03/07 00:54:23;;;;;;;13.13;6.05;;;;;;;;;;5067430;28;20033;-69
2022/03/07 00:56:48;;;;;;;13.63;5.65;;;;;;;;;;5043810;28;20020;-68
2022/03/07 00:59:14;;;;;;;11.50;5.82;;;;;;;;;;5064489;28;20107;-67
2022/03/07 01:01:39;;;;;;;13.60;5.88;;;;;;;;;;5063919;28;20103;-68
2022/03/07 01:04:04;;;;;;;13.85;5.85;;;;;;;;;;5064501;28;20025;-68
2022/03/07 01:06:29;;;;;;;10.48;5.40;;;;;;;;;;5060774;28;20033;-67
2022/03/07 01:08:55;;;;;;;9.93;5.18;;;;;;;;;;5065652;28;20013;-67
2022/03/07 01:11:21;;;;;;;13.05;6.40;;;;;;;;;;5041547;28;20359;-67
2022/03/07 01:13:46;;;;;;;12.13;5.70;;;;;;;;;;5046120;28;20491;-68
2022/03/07 01:16:12;;;;;;;9.77;5.80;;;;;;;;;;5064588;28;20116;-67
2022/03/07 01:18:38;;;;;;;9.25;5.22;;;;;;;;;;5047441;28;20031;-69
2022/03/07 01:21:03;;;;;;;12.20;6.20;;;;;;;;;;5064201;28;20025;-67
2022/03/07 01:23:28;;;;;;;10.80;5.75;;;;;;;;;;5063061;28;20454;-68
2022/03/07 01:25:54;;;;;;;10.23;5.47;;;;;;;;;;5062951;28;20127;-69
2022/03/07 01:28:19;;;;;;;11.57;6.28;;;;;;;;;;5060587;28;20103;-68
2022/03/07 01:30:44;;;;;;;8.35;5.47;;;;;;;;;;5047379;28;20169;-68
2022/03/07 01:33:09;;;;;;;10.52;5.85;;;;;;;;;;5065365;28;20497;-67
2022/03/07 01:35:35;;;;;;;12.75;5.78;;;;;;;;;;5069209;28;20125;-67
2022/03/07 01:38:00;;;;;;;11.65;5.30;;;;;;;;;;5047434;28;20178;-68
2022/03/07 01:40:25;;;;;;;9.05;5.50;;;;;;;;;;5062805;28;20032;-68
2022/03/07 01:42:50;;;;;;;10.57;5.70;;;;;;;;;;5058701;28;20049;-67
2022/03/07 01:45:19;;;;;;;11.20;5.90;;;;;;;;;;5063974;28;20024;-69
2022/03/07 01:47:45;;;;;;;10.50;5.80;;;;;;;;;;5064238;28;20335;-67
2022/03/07 01:50:12;;;;;;;12.70;5.78;;;;;;;;;;5062897;28;20156;-68
2022/03/07 01:52:38;;;;;;;14.13;6.05;;;;;;;;;;5062323;28;20032;-68
2022/03/07 01:55:04;;;;;;;10.23;5.20;;;;;;;;;;5064005;28;20009;-68
2022/03/07 01:57:30;;;;;;;11.20;5.88;;;;;;;;;;5060351;28;20538;-68
2022/03/07 01:59:55;;;;;;;9.57;5.72;;;;;;;;;;5063398;28;20055;-67
2022/03/07 02:02:21;;;;;;;8.55;5.40;;;;;;;;;;5049316;28;20064;-67
2022/03/07 02:04:46;;;;;;;11.55;5.60;;;;;;;;;;5027382;28;20021;-68
2022/03/07 02:07:11;;;;;;;13.85;5.65;;;;;;;;;;5043223;28;20459;-68
2022/03/07 02:09:37;;;;;;;9.20;5.30;;;;;;;;;;5042231;28;20219;-69
2022/03/07 02:12:02;;;;;;;10.55;5.40;;;;;;;;;;5039699;28;20079;-68
2022/03/07 02:14:27;;;;;;;9.07;5.72;;;;;;;;;;5044944;28;20017;-68
2022/03/07 02:16:53;;;;;;;8.38;5.20;;;;;;;;;;5043896;28;20492;-68
2022/03/07 02:19:19;;;;;;;13.38;6.13;;;;;;;;;;5044367;28;20048;-69
2022/03/07 02:21:54;;;;;;;11.27;5.95;;;;;;;;;;5041646;28;20021;-68
2022/03/07 02:24:38;;;;;;;11.93;6.05;;;;;;;;;;5041052;28;20045;-68
2022/03/07 02:27:07;;;;;;;14.10;5.88;;;;;;;;;;5045966;28;20437;-68
2022/03/07 02:29:33;;;;;;;11.95;6.05;;;;;;;;;;5062435;28;20035;-67
2022/03/07 02:31:58;;;;;;;10.50;5.72;;;;;;;;;;5042112;28;20017;-67
2022/03/07 02:34:24;;;;;;;10.32;6.25;;;;;;;;;;5040137;28;20059;-68
2022/03/07 02:36:49;;;;;;;11.48;5.97;;;;;;;;;;5039349;28;20517;-68
2022/03/07 02:39:15;;;;;;;10.27;5.85;;;;;;;;;;5043367;28;20162;-68
2022/03/07 02:41:41;;;;;;;9.07;5.60;;;;;;;;;;5035777;28;20118;-68
2022/03/07 02:44:07;;;;;;;8.93;5.85;;;;;;;;;;5045179;28;20082;-67
2022/03/07 02:46:32;;;;;;;12.90;5.95;;;;;;;;;;5051072;28;20020;-69
2022/03/07 02:48:59;;;;;;;18.08;6.65;;;;;;;;;;5062504;28;20076;-67
2022/03/07 02:51:24;;;;;;;14.05;6.75;;;;;;;;;;5061354;28;20059;-67
2022/03/07 02:53:50;;;;;;;10.70;6.25;;;;;;;;;;5046118;28;20475;-67
2022/03/07 02:56:17;;;;;;;12.52;6.00;;;;;;;;;;5057351;28;20118;-68
2022/03/07 02:58:42;;;;;;;15.00;6.00;;;;;;;;;;5043801;28;20418;-68
2022/03/07 03:01:08;;;;;;;15.80;6.60;;;;;;;;;;5061239;28;20492;-67
2022/03/07 03:03:33;;;;;;;11.38;6.80;;;;;;;;;;5060252;28;20086;-68
2022/03/07 03:05:58;;;;;;;13.18;6.82;;;;;;;;;;5061321;28;20016;-67
2022/03/07 03:08:24;;;;;;;13.98;6.25;;;;;;;;;;5059785;28;20025;-68
2022/03/07 03:10:50;;;;;;;16.23;7.15;;;;;;;;;;5042336;28;20108;-67
2022/03/07 03:13:20;;;;;;;12.95;5.97;;;;;;;;;;5058524;28;20112;-68
2022/03/07 03:15:46;;;;;;;10.45;6.50;;;;;;;;;;5058653;28;20447;-67
2022/03/07 03:18:11;;;;;;;10.02;6.63;;;;;;;;;;5062179;28;20391;-68
2022/03/07 03:20:36;;;;;;;13.95;7.00;;;;;;;;;;5057416;28;20025;-68
2022/03/07 03:23:02;;;;;;;15.88;6.60;;;;;;;;;;5041535;28;20451;-68
2022/03/07 03:25:27;;;;;;;14.93;6.60;;;;;;;;;;5039083;28;20373;-66
2022/03/07 03:27:53;;;;;;;17.48;7.47;;;;;;;;;;5037038;28;20459;-68
2022/03/07 03:30:18;;;;;;;13.23;6.95;;;;;;;;;;5042522;28;20036;-68
2022/03/07 03:32:43;;;;;;;10.50;6.85;;;;;;;;;;5039351;28;20366;-67
2022/03/07 03:35:09;;;;;;;16.08;6.90;;;;;;;;;;5040932;28;20087;-67
2022/03/07 03:37:34;;;;;;;11.00;6.35;;;;;;;;;;5040800;28;20017;-68
2022/03/07 03:40:00;;;;;;;10.90;6.00;;;;;;;;;;5039725;28;20628;-67
2022/03/07 03:42:26;;;;;;;11.23;7.32;;;;;;;;;;5038504;28;20053;-68
2022/03/07 03:44:51;;;;;;;13.48;6.68;;;;;;;;;;5023018;28;20033;-68
2022/03/07 03:47:17;;;;;;;15.55;6.65;;;;;;;;;;5041779;28;20376;-68
2022/03/07 03:49:42;;;;;;;8.98;6.22;;;;;;;;;;5040624;28;20049;-67
2022/03/07 03:52:08;;;;;;;13.57;6.35;;;;;;;;;;5041137;28;20040;-68
2022/03/07 03:54:33;;;;;;;14.43;6.93;;;;;;;;;;5035792;28;20539;-67
2022/03/07 03:56:58;;;;;;;13.25;7.10;;;;;;;;;;5035553;28;20096;-67
2022/03/07 03:59:23;;;;;;;11.82;6.82;;;;;;;;;;5056365;28;20029;-67
2022/03/07 04:01:49;;;;;;;13.57;7.32;;;;;;;;;;5063185;28;20338;-68
2022/03/07 04:04:14;;;;;;;10.07;6.60;;;;;;;;;;5067803;28;20471;-67
2022/03/07 04:06:41;;;;;;;13.10;7.15;;;;;;;;;;5062377;28;20032;-67
2022/03/07 04:09:11;;;;;;;11.35;6.78;;;;;;;;;;5065757;28;20025;-68
2022/03/07 04:11:36;;;;;;;12.75;7.53;;;;;;;;;;5055515;28;20542;-67
2022/03/07 04:14:02;;;;;;;13.70;7.30;;;;;;;;;;5067141;28;20088;-67
2022/03/07 04:16:28;;;;;;;11.85;7.00;;;;;;;;;;5064079;28;20024;-68
2022/03/07 04:18:53;;;;;;;15.07;7.85;;;;;;;;;;5063386;28;20035;-68
2022/03/07 04:21:19;;;;;;;14.27;7.22;;;;;;;;;;5063372;28;20024;-68
2022/03/07 04:23:44;;;;;;;13.52;7.78;;;;;;;;;;5063766;28;20048;-68
2022/03/07 04:26:10;;;;;;;12.88;7.93;;;;;;;;;;5057388;28;20032;-68
2022/03/07 04:28:36;;;;;;;12.45;7.65;;;;;;;;;;5023978;28;20127;-67
2022/03/07 04:31:01;;;;;;;11.85;7.35;;;;;;;;;;5044846;28;20131;-68
2022/03/07 04:33:27;;;;;;;10.98;7.43;;;;;;;;;;5045267;28;20070;-67
2022/03/07 04:35:52;;;;;;;12.02;8.02;;;;;;;;;;5040696;28;20470;-67
2022/03/07 04:38:17;;;;;;;12.02;7.80;;;;;;;;;;5045568;28;20419;-69
2022/03/07 04:40:43;;;;;;;10.18;7.53;;;;;;;;;;5039825;28;20468;-68
2022/03/07 04:43:08;;;;;;;13.80;8.30;;;;;;;;;;5053565;28;20052;-67
2022/03/07 04:45:33;;;;;;;13.32;7.97;;;;;;;;;;5063531;28;20455;-67
2022/03/07 04:47:58;;;;;;;13.48;8.30;;;;;;;;;;5063727;28;20493;-68
2022/03/07 04:50:24;;;;;;;12.32;7.50;;;;;;;;;;5062222;28;20021;-67
2022/03/07 04:52:49;;;;;;;10.93;7.78;;;;;;;;;;5052014;28;20060;-68
2022/03/07 04:55:14;;;;;;;8.98;7.68;;;;;;;;;;5043209;28;20095;-67
2022/03/07 04:57:39;;;;;;;13.60;8.18;;;;;;;;;;5038396;28;20262;-67
2022/03/07 05:00:06;;;;;;;14.07;8.45;;;;;;;;;;5043072;28;20074;-68
2022/03/07 05:02:32;;;;;;;13.30;8.57;;;;;;;;;;5043189;28;20471;-68
2022/03/07 05:04:58;;;;;;;11.48;8.38;;;;;;;;;;5041781;28;20021;-67
2022/03/07 05:07:24;;;;;;;13.40;7.88;;;;;;;;;;5025970;28;20438;-68
2022/03/07 05:09:49;;;;;;;16.05;8.18;;;;;;;;;;5042013;28;20068;-69
2022/03/07 05:12:14;;;;;;;14.45;8.75;;;;;;;;;;5039185;28;20127;-68
2022/03/07 05:14:39;;;;;;;10.25;7.72;;;;;;;;;;5041309;28;20512;-68
2022/03/07 05:17:05;;;;;;;15.85;8.68;;;;;;;;;;5046176;28;20448;-68
2022/03/07 05:19:30;;;;;;;11.65;8.20;;;;;;;;;;5043040;28;20025;-67
2022/03/07 05:21:55;;;;;;;11.70;8.23;;;;;;;;;;5043059;28;20097;-67
2022/03/07 05:24:22;;;;;;;12.77;9.35;;;;;;;;;;5042601;28;20025;-67
2022/03/07 05:26:47;;;;;;;15.07;9.10;;;;;;;;;;5029831;28;20025;-69
2022/03/07 05:29:14;;;;;;;15.23;9.02;;;;;;;;;;5064783;28;20105;-67
2022/03/07 05:31:39;;;;;;;12.70;9.20;;;;;;;;;;5063309;28;20020;-68
2022/03/07 05:34:04;;;;;;;15.73;9.07;;;;;;;;;;5047258;28;20177;-68
2022/03/07 05:36:29;;;;;;;16.00;9.15;;;;;;;;;;5063893;28;20016;-67
2022/03/07 05:38:54;;;;;;;12.35;8.95;;;;;;;;;;5063406;28;20346;-67
2022/03/07 05:41:21;;;;;;;12.10;10.00;;;;;;;;;;5059700;28;20043;-67
2022/03/07 05:43:46;;;;;;;14.98;10.20;;;;;;;;;;5061757;28;20059;-67
2022/03/07 05:46:13;;;;;;;9.82;8.60;;;;;;;;;;5063669;28;20020;-67
2022/03/07 05:48:38;;;;;;;13.35;9.10;;;;;;;;;;5064032;28;20094;-66
2022/03/07 05:51:04;;;;;;;15.77;9.95;;;;;;;;;;5063477;28;20012;-67
2022/03/07 05:53:29;;;;;;;14.00;9.75;;;;;;;;;;5062812;28;20054;-68
2022/03/07 05:55:54;;;;;;;16.20;10.07;;;;;;;;;;5060454;28;20422;-67
2022/03/07 05:58:20;;;;;;;14.00;9.57;;;;;;;;;;5059270;28;20379;-68
2022/03/07 06:00:45;;;;;;;12.15;9.93;;;;;;;;;;5061777;28;20056;-67
2022/03/07 06:03:11;;;;;;;13.93;9.05;;;;;;;;;;5064414;28;20115;-67
2022/03/07 06:05:36;;;;;;;13.88;9.73;;;;;;;;;;5063770;28;20025;-69
2022/03/07 06:08:02;;;;;;;12.25;9.32;;;;;;;;;;5063593;28;20344;-68
2022/03/07 06:10:28;;;;;;;13.45;9.13;;;;;;;;;;5059164;28;20032;-67
2022/03/07 06:12:53;;;;;;;16.48;9.73;;;;;;;;;;5056931;28;20048;-69
2022/03/07 06:15:19;;;;;;;11.10;9.45;;;;;;;;;;5063199;28;20075;-68
2022/03/07 06:17:49;;;;;;;13.55;9.63;;;;;;;;;;5061848;28;20512;-68
2022/03/07 06:20:15;;;;;;;14.32;9.80;;;;;;;;;;5063361;28;20435;-67
2022/03/07 06:22:42;;;;;;;11.15;9.55;;;;;;;;;;5063014;28;20115;-68
2022/03/07 06:25:07;;;;;;;13.43;9.35;;;;;;;;;;5060006;28;20026;-68
2022/03/07 06:27:32;;;;;;;12.82;9.60;;;;;;;;;;5059109;28;20024;-68
2022/03/07 06:29:58;;;;;;;15.43;10.30;;;;;;;;;;5062995;28;20424;-68
2022/03/07 06:32:24;;;;;;;15.02;9.73;;;;;;;;;;5062578;28;20502;-67
2022/03/07 06:34:50;;;;;;;13.65;9.05;;;;;;;;;;5061134;28;20021;-67
2022/03/07 06:37:15;;;;;;;12.30;10.40;;;;;;;;;;5062839;28;20047;-67
2022/03/07 06:39:42;;;;;;;15.05;10.13;;;;;;;;;;5060583;28;20024;-69
2022/03/07 06:42:07;;;;;;;13.63;10.73;;;;;;;;;;5039344;28;20075;-69
2022/03/07 06:44:33;;;;;;;12.70;9.77;;;;;;;;;;5062894;28;20378;-67
2022/03/07 06:46:59;;;;;;;14.18;9.80;;;;;;;;;;5062276;28;20062;-67
2022/03/07 06:49:24;;;;;;;13.85;10.35;;;;;;;;;;5062677;28;20021;-67
2022/03/07 06:51:49;;;;;;;14.93;10.43;;;;;;;;;;5061557;28;20161;-67
2022/03/07 06:54:15;;;;;;;20.60;11.23;;;;;;;;;;5062887;28;20016;-68
2022/03/07 06:56:41;;;;;;;13.45;10.30;;;;;;;;;;5038423;28;20082;-68
2022/03/07 06:59:06;;;;;;;13.98;9.95;;;;;;;;;;5059378;28;20796;-68
2022/03/07 07:01:31;;;;;;;14.77;11.02;;;;;;;;;;5061245;28;20029;-68
2022/03/07 07:03:57;;;;;;;14.57;10.93;;;;;;;;;;5059544;28;20027;-67
2022/03/07 07:06:22;;;;;;;17.75;11.50;;;;;;;;;;5061018;28;20032;-68
2022/03/07 07:08:48;;;;;;;15.80;10.90;;;;;;;;;;5061444;28;20024;-68
2022/03/07 07:11:13;;;;;;;14.48;10.27;;;;;;;;;;5054057;28;20028;-68
2022/03/07 07:13:38;;;;;;;15.20;11.52;;;;;;;;;;5061146;28;20020;-67
2022/03/07 07:16:04;;;;;;;15.73;11.65;;;;;;;;;;5058200;28;20030;-67
2022/03/07 07:18:29;;;;;;;16.20;12.10;;;;;;;;;;5062471;28;20025;-69
2022/03/07 07:20:55;;;;;;;16.38;12.07;;;;;;;;;;5059289;28;20016;-68
2022/03/07 07:23:21;;;;;;;16.70;11.23;;;;;;;;;;5062687;28;20060;-68
2022/03/07 07:25:47;;;;;;;16.88;12.35;;;;;;;;;;5042146;28;20396;-67
2022/03/07 07:28:13;;;;;;;14.70;12.30;;;;;;;;;;5055759;28;20046;-68
2022/03/07 07:30:38;;;;;;;17.75;12.52;;;;;;;;;;5062181;28;20483;-68
2022/03/07 07:33:04;;;;;;;16.38;12.40;;;;;;;;;;5059214;28;20649;-69
2022/03/07 07:35:29;;;;;;;18.92;12.40;;;;;;;;;;5059385;28;20535;-67
2022/03/07 07:37:54;;;;;;;20.13;12.93;;;;;;;;;;5060508;28;20515;-68
2022/03/07 07:40:20;;;;;;;16.48;11.88;;;;;;;;;;5058400;28;20532;-67
2022/03/07 07:42:46;;;;;;;14.50;11.95;;;;;;;;;;5057553;28;20107;-67
2022/03/07 07:45:12;;;;;;;17.30;12.00;;;;;;;;;;5061353;28;20036;-68
2022/03/07 07:47:37;;;;;;;16.00;12.88;;;;;;;;;;5062697;28;20171;-67
2022/03/07 07:50:03;;;;;;;19.55;12.23;;;;;;;;;;5059777;28;20479;-68
2022/03/07 07:52:28;;;;;;;16.95;11.10;;;;;;;;;;5062211;28;20028;-68
2022/03/07 07:54:54;;;;;;;16.85;11.77;;;;;;;;;;5058932;28;20027;-68
2022/03/07 07:57:19;;;;;;;15.15;11.65;;;;;;;;;;5057007;28;20026;-67
2022/03/07 07:59:44;;;;;;;14.55;12.10;;;;;;;;;;5059670;28;20067;-68
2022/03/07 08:02:10;;;;;;;18.00;11.98;;;;;;;;;;5062020;28;20133;-70
2022/03/07 08:04:35;;;;;;;15.25;11.90;;;;;;;;;;5047937;28;20051;-67
2022/03/07 08:07:00;;;;;;;16.08;12.20;;;;;;;;;;5040480;28;20053;-68
2022/03/07 08:09:26;;;;;;;15.90;11.85;;;;;;;;;;5037796;28;20020;-69
2022/03/07 08:11:52;;;;;;;14.43;12.30;;;;;;;;;;5038292;28;20467;-69
2022/03/07 08:14:17;;;;;;;12.40;11.10;;;;;;;;;;5024721;28;20395;-67
2022/03/07 08:16:42;;;;;;;16.15;11.63;;;;;;;;;;5040876;28;20023;-68
2022/03/07 08:19:08;;;;;;;16.77;12.70;;;;;;;;;;5042143;28;20025;-68
2022/03/07 08:21:33;;;;;;;14.43;12.50;;;;;;;;;;5040860;28;20017;-68
2022/03/07 08:24:00;;;;;;;14.30;11.68;;;;;;;;;;5041131;28;20423;-68
2022/03/07 08:26:27;;;;;;;14.60;11.27;;;;;;;;;;5034336;28;20075;-67
2022/03/07 08:28:56;;;;;;;14.80;11.60;;;;;;;;;;5041735;28;20352;-69
2022/03/07 08:31:21;;;;;;;14.30;10.75;;;;;;;;;;5042170;28;20021;-68
2022/03/07 08:33:46;;;;;;;13.30;11.82;;;;;;;;;;5042779;28;20427;-67
2022/03/07 08:36:12;;;;;;;12.20;11.00;;;;;;;;;;5039538;28;20273;-68
2022/03/07 08:38:37;;;;;;;13.18;11.15;;;;;;;;;;5041943;28;20070;-69
2022/03/07 08:41:02;;;;;;;13.05;11.65;;;;;;;;;;5038450;28;20017;-69
2022/03/07 08:43:28;;;;;;;11.25;10.13;;;;;;;;;;5038317;28;20069;-69
2022/03/07 08:45:54;;;;;;;13.57;11.05;;;;;;;;;;5041995;28;20099;-68
2022/03/07 08:48:19;;;;;;;13.13;10.57;;;;;;;;;;5044118;28;20025;-69
2022/03/07 08:50:48;;;;;;;13.80;11.45;;;;;;;;;;5047069;28;20032;-68
2022/03/07 08:53:13;;;;;;;11.95;10.55;;;;;;;;;;5043816;28;20032;-69
2022/03/07 08:55:39;;;;;;;12.35;9.88;;;;;;;;;;5042374;28;20104;-69
2022/03/07 08:58:04;;;;;;;14.00;10.52;;;;;;;;;;5039199;28;20020;-69
2022/03/07 09:00:29;;;;;;;11.35;10.20;;;;;;;;;;5044521;28;20027;-68
2022/03/07 09:02:55;;;;;;;15.65;11.20;;;;;;;;;;5044347;28;20028;-68
2022/03/07 09:05:21;;;;;;;11.63;10.43;;;;;;;;;;5045066;28;20033;-68
2022/03/07 09:07:46;;;;;;;12.43;10.18;;;;;;;;;;5046405;28;20025;-68
2022/03/07 09:10:11;;;;;;;10.73;9.45;;;;;;;;;;5041781;28;20475;-67
2022/03/07 09:12:37;;;;;;;9.65;8.65;;;;;;;;;;5039071;28;20033;-67
2022/03/07 09:15:03;;;;;;;11.68;8.90;;;;;;;;;;5042603;28;20368;-67
2022/03/07 09:17:29;;;;;;;9.88;8.90;;;;;;;;;;5045516;28;20032;-69
2022/03/07 09:20:00;;;;;;;9.88;8.98;;;;;;;;;;5044561;28;20021;-68
2022/03/07 09:22:25;;;;;;;12.18;9.15;;;;;;;;;;5044836;28;20021;-68
2022/03/07 09:24:51;;;;;;;12.30;9.38;;;;;;;;;;5048116;28;20040;-68
2022/03/07 09:27:16;;;;;;;9.95;9.00;;;;;;;;;;5054941;28;20439;-68
2022/03/07 09:29:41;;;;;;;9.57;8.60;;;;;;;;;;5045121;28;20033;-67
2022/03/07 09:32:07;;;;;;;10.48;9.38;;;;;;;;;;5043752;28;20108;-68
2022/03/07 09:34:33;;;;;;;10.30;8.40;;;;;;;;;;5044778;28;20538;-69
2022/03/07 09:36:59;;;;;;;10.57;8.30;;;;;;;;;;5044176;28;20028;-68
2022/03/07 09:39:24;;;;;;;9.85;8.63;;;;;;;;;;5044481;28;20016;-68
2022/03/07 09:41:50;;;;;;;9.38;8.48;;;;;;;;;;5022472;28;20523;-68
2022/03/07 09:44:15;;;;;;;10.82;8.23;;;;;;;;;;5023641;28;20047;-68
2022/03/07 09:46:40;;;;;;;9.25;8.32;;;;;;;;;;5060889;28;20032;-68
2022/03/07 09:49:06;;;;;;;9.90;8.82;;;;;;;;;;5044432;28;20036;-69
2022/03/07 09:51:31;;;;;;;9.57;8.57;;;;;;;;;;5062471;28;20052;-69
2022/03/07 09:53:56;;;;;;;10.85;9.70;;;;;;;;;;5063196;28;20086;-68
2022/03/07 09:56:23;;;;;;;12.55;9.60;;;;;;;;;;5055632;28;20815;-69
2022/03/07 09:58:48;;;;;;;12.25;9.30;;;;;;;;;;5061936;28;20411;-70
2022/03/07 10:01:15;;;;;;;10.35;9.35;;;;;;;;;;5062765;28;20071;-68
2022/03/07 10:03:40;;;;;;;10.93;9.82;;;;;;;;;;5065238;28;20028;-68
2022/03/07 10:06:17;;;;;;;10.57;9.57;;;;;;;;;;5043396;28;20032;-68
2022/03/07 10:08:51;;;;;;;10.68;9.65;;;;;;;;;;5063232;28;20029;-69
2022/03/07 10:11:18;;;;;;;9.88;8.30;;;;;;;;;;5059447;28;20384;-68
2022/03/07 10:13:50;;;;;;;9.60;8.60;;;;;;;;;;5059598;28;20027;-67
2022/03/07 10:16:16;;;;;;;10.90;9.20;;;;;;;;;;5057119;28;20479;-67
2022/03/07 10:18:47;;;;;;;11.00;9.20;;;;;;;;;;5063737;28;20067;-69
2022/03/07 10:21:20;;;;;;;9.77;8.60;;;;;;;;;;5060656;28;20135;-68
2022/03/07 10:23:45;;;;;;;;;;;;;;;;;;5063783;28;20027;-69
2022/03/07 10:26:12;;;;;;;10.80;8.82;;;;;;;;;;5059405;28;20407;-69
2022/03/07 10:28:38;;;;;;;9.15;8.25;;;;;;;;;;5043530;28;20090;-69
2022/03/07 10:31:17;;;;;;;9.55;8.52;;;;;;;;;;5064021;28;20024;-69
2022/03/07 10:33:43;;;;;;;10.32;9.23;;;;;;;;;;5062707;28;20025;-68
2022/03/07 10:36:08;;;;;;;9.90;8.77;;;;;;;;;;5059897;28;20021;-67
2022/03/07 10:38:34;;;;;;;10.43;9.27;;;;;;;;;;5061818;28;20104;-68
2022/03/07 10:40:59;;;;;;;10.27;9.27;;;;;;;;;;5061506;28;20028;-69
2022/03/07 10:43:24;;;;;;;10.57;9.57;;;;;;;;;;5059380;28;20061;-68
2022/03/07 10:45:58;;;;;;;10.77;9.75;;;;;;;;;;5060931;28;20213;-69
2022/03/07 10:48:25;;;;;;;10.52;9.27;;;;;;;;;;5060120;28;20145;-69
2022/03/07 10:50:51;;;;;;;12.75;9.27;;;;;;;;;;5062698;28;20538;-67
2022/03/07 10:53:17;;;;;;;11.73;10.10;;;;;;;;;;5060596;28;20052;-68
2022/03/07 10:55:50;;;;;;;11.00;9.02;;;;;;;;;;5059238;28;20540;-68
2022/03/07 10:58:15;;;;;;;10.50;9.40;;;;;;;;;;5058382;28;20012;-68
2022/03/07 11:00:49;;;;;;;12.68;9.68;;;;;;;;;;5061091;28;20047;-68
2022/03/07 11:03:22;;;;;;;10.00;9.00;;;;;;;;;;5059476;28;20028;-68
2022/03/07 11:05:47;;;;;;;;;;;;;;;;;;5060177;28;20021;-68
2022/03/07 11:08:15;;;;;;;10.65;9.45;;;;;;;;;;5059376;28;19927;-69
2022/03/07 11:10:44;;;;;;;10.15;9.15;;;;;;;;;;5059867;28;20322;-68
2022/03/07 11:13:11;;;;;;;9.93;8.93;;;;;;;;;;5057965;28;20020;-68
2022/03/07 11:15:36;;;;;;;10.50;9.00;;;;;;;;;;5044298;28;20024;-68
2022/03/07 11:18:02;;;;;;;13.27;9.77;;;;;;;;;;5064225;28;20444;-67
2022/03/07 11:20:28;;;;;;;12.00;10.80;;;;;;;;;;5038980;28;20021;-69
2022/03/07 11:22:53;;;;;;;10.98;9.80;;;;;;;;;;5023584;28;20040;-68
2022/03/07 11:25:18;;;;;;;10.82;9.73;;;;;;;;;;5036625;28;20498;-69
2022/03/07 11:27:44;;;;;;;15.80;10.52;;;;;;;;;;5022642;28;20081;-68
2022/03/07 11:30:17;;;;;;;10.40;9.40;;;;;;;;;;5042950;28;20041;-69
2022/03/07 11:32:43;;;;;;;10.43;9.40;;;;;;;;;;5043418;28;20337;-69
2022/03/07 11:35:12;;;;;;;10.88;9.77;;;;;;;;;;5050590;28;20024;-67
2022/03/07 11:37:37;;;;;;;12.35;9.40;;;;;;;;;;5063042;28;20017;-69
2022/03/07 11:40:14;;;;;;;10.43;8.55;;;;;;;;;;5061544;28;20029;-68
2022/03/07 11:42:39;;;;;;;11.10;9.93;;;;;;;;;;5059552;28;20506;-68
2022/03/07 11:45:18;;;;;;;10.57;9.50;;;;;;;;;;5061534;28;20024;-68
2022/03/07 11:47:44;;;;;;;10.55;9.40;;;;;;;;;;5063114;28;20016;-67
2022/03/07 11:50:11;;;;;;;13.07;9.70;;;;;;;;;;5063361;28;20038;-69
2022/03/07 11:52:36;;;;;;;10.50;9.23;;;;;;;;;;5043069;28;20127;-68
2022/03/07 11:55:06;;;;;;;12.40;10.35;;;;;;;;;;5061047;28;20116;-68
2022/03/07 11:57:40;;;;;;;9.73;8.82;;;;;;;;;;5058517;28;20024;-68
2022/03/07 12:00:16;;;;;;;12.25;10.60;;;;;;;;;;5063200;28;20021;-68
2022/03/07 12:02:42;;;;;;;10.48;9.48;;;;;;;;;;5062506;28;20039;-69
2022/03/07 12:05:18;;;;;;;11.85;9.68;;;;;;;;;;5062354;28;20347;-69
2022/03/07 12:07:43;;;;;;;11.90;10.48;;;;;;;;;;5062774;28;20028;-69
2022/03/07 12:10:08;;;;;;;11.82;10.60;;;;;;;;;;5061531;28;20029;-69
2022/03/07 12:12:34;;;;;;;11.45;10.07;;;;;;;;;;5040790;28;20028;-69
2022/03/07 12:15:06;;;;;;;10.70;9.60;;;;;;;;;;5060673;28;20104;-68
2022/03/07 12:17:31;;;;;;;10.40;9.40;;;;;;;;;;5059069;28;20031;-68
2022/03/07 12:19:57;;;;;;;10.45;9.45;;;;;;;;;;5062354;28;20020;-67
2022/03/07 12:22:23;;;;;;;11.15;9.80;;;;;;;;;;5063931;28;20124;-69
2022/03/07 12:24:49;;;;;;;10.15;9.15;;;;;;;;;;5065092;28;20100;-68
2022/03/07 12:27:14;;;;;;;11.13;9.63;;;;;;;;;;5063050;28;20195;-68
2022/03/07 12:29:43;;;;;;;9.90;8.90;;;;;;;;;;5066115;28;20020;-68
2022/03/07 12:32:09;;;;;;;10.27;9.18;;;;;;;;;;5066480;28;20013;-69
2022/03/07 12:34:35;;;;;;;10.35;9.32;;;;;;;;;;5063707;28;20070;-67
2022/03/07 12:37:03;;;;;;;10.18;9.15;;;;;;;;;;5065355;28;20123;-68
2022/03/07 12:39:29;;;;;;;10.07;8.63;;;;;;;;;;5049325;28;20025;-67
2022/03/07 12:41:59;;;;;;;11.77;9.52;;;;;;;;;;5041616;28;20047;-68
2022/03/07 12:44:25;;;;;;;10.80;9.68;;;;;;;;;;5045625;28;20013;-68
2022/03/07 12:46:51;;;;;;;9.98;9.10;;;;;;;;;;5045617;28;20025;-68
2022/03/07 12:49:18;;;;;;;10.65;9.45;;;;;;;;;;5046743;28;20027;-69
2022/03/07 12:51:43;;;;;;;10.68;9.57;;;;;;;;;;5044301;28;20048;-70
2022/03/07 12:54:08;;;;;;;9.70;8.70;;;;;;;;;;5044915;28;20441;-69
2022/03/07 12:56:38;;;;;;;9.88;8.88;;;;;;;;;;5040697;28;20305;-69
2022/03/07 12:59:03;;;;;;;10.50;9.40;;;;;;;;;;5064811;28;20043;-69
2022/03/07 13:01:29;;;;;;;10.60;9.52;;;;;;;;;;5062300;28;20090;-68
2022/03/07 13:03:55;;;;;;;10.52;9.45;;;;;;;;;;5066046;28;20024;-69
2022/03/07 13:06:23;;;;;;;10.57;9.48;;;;;;;;;;5061605;28;20029;-69
2022/03/07 13:08:50;;;;;;;10.32;9.32;;;;;;;;;;5066565;28;20394;-68
2022/03/07 13:11:18;;;;;;;10.73;9.32;;;;;;;;;;5045801;28;20017;-69
2022/03/07 13:13:44;;;;;;;9.82;8.90;;;;;;;;;;5042836;28;20049;-68
2022/03/07 13:16:09;;;;;;;10.48;9.48;;;;;;;;;;5045519;28;20659;-69
2022/03/07 13:18:35;;;;;;;11.05;9.85;;;;;;;;;;5045177;28;20029;-70
2022/03/07 13:21:00;;;;;;;11.27;10.15;;;;;;;;;;5046065;28;20013;-68
2022/03/07 13:23:28;;;;;;;10.88;9.77;;;;;;;;;;5044515;28;20025;-69
2022/03/07 13:25:53;;;;;;;11.52;10.38;;;;;;;;;;5043490;28;20108;-69
2022/03/07 13:28:25;;;;;;;13.13;10.10;;;;;;;;;;5043009;28;20147;-69
2022/03/07 13:30:51;;;;;;;11.35;10.20;;;;;;;;;;5045855;28;20491;-68
2022/03/07 13:33:17;;;;;;;11.15;10.07;;;;;;;;;;5043070;28;20061;-68
2022/03/07 13:35:43;;;;;;;16.83;9.93;;;;;;;;;;5042180;28;20063;-68
2022/03/07 13:38:08;;;;;;;11.10;10.00;;;;;;;;;;5043558;28;20135;-69
2022/03/07 13:40:36;;;;;;;11.25;10.15;;;;;;;;;;5025122;28;20475;-70
2022/03/07 13:43:02;;;;;;;10.75;9.65;;;;;;;;;;5041211;28;20407;-70
2022/03/07 13:45:28;;;;;;;10.98;9.98;;;;;;;;;;5043997;28;20205;-70
2022/03/07 13:48:04;;;;;;;10.60;9.57;;;;;;;;;;5046314;28;20052;-69
2022/03/07 13:50:30;;;;;;;14.13;9.30;;;;;;;;;;5043841;28;20048;-68
2022/03/07 13:53:09;;;;;;;10.50;9.40;;;;;;;;;;5046172;28;20440;-69
2022/03/07 13:55:39;;;;;;;10.60;9.68;;;;;;;;;;5050597;28;20086;-69
2022/03/07 13:58:05;;;;;;;9.90;8.90;;;;;;;;;;5062725;28;20012;-69
2022/03/07 14:00:31;;;;;;;9.48;8.57;;;;;;;;;;5062734;28;20177;-68
2022/03/07 14:03:01;;;;;;;9.73;8.82;;;;;;;;;;5046241;28;20450;-69
2022/03/07 14:05:38;;;;;;;11.35;8.73;;;;;;;;;;5062580;28;20024;-68
2022/03/07 14:08:03;;;;;;;9.25;8.18;;;;;;;;;;5065105;28;20382;-68
2022/03/07 14:10:29;;;;;;;8.93;8.07;;;;;;;;;;5060702;28;20096;-69
2022/03/07 14:12:55;;;;;;;9.25;8.30;;;;;;;;;;5061826;28;20108;-68
2022/03/07 14:15:33;;;;;;;9.15;8.25;;;;;;;;;;5063657;28;20020;-70
2022/03/07 14:18:03;;;;;;;9.95;8.25;;;;;;;;;;5063256;28;20017;-68
2022/03/07 14:20:29;;;;;;;9.13;8.25;;;;;;;;;;5054220;28;20360;-69
2022/03/07 14:22:55;;;;;;;8.50;7.70;;;;;;;;;;5045080;28;20017;-70